sensor_id;sensor_type;location;lat;lon;timestamp;temperature;humidity
14614;DHT22;7393;51.446;6.800;2023-04-01T00:01:13;10.40;1.00
14614;DHT22;7393;51.446;6.800;2023-04-01T00:03:40;10.40;1.00
14614;DHT22;7393;51.446;6.800;2023-04-01T00:06:07;10.40;1.00
14614;DHT22;7393;51.446;6.800;2023-04-01T00:08:34;10.40;1.00
14614;DHT22;7393;51.446;6.800;2023-04-01T00:11:01;10.40;1.00
14614;DHT22;7393;51.446;6.800;2023-04-01T00:13:27;10.40;1.00
14614;DHT22;7393;51.446;6.800;2023-04-01T00:15:56;10.40;1.00
14614;DHT22;7393;51.446;6.800;2023-04-01T00:18:23;10.40;1.00
14614;DHT22;7393;51.446;6.800;2023-04-01T00:20:51;10.40;1.00
14614;DHT22;7393;51.446;6.800;2023-04-01T00:23:19;10.50;1.00
14614;DHT22;7393;51.446;6.800;2023-04-01T00:25:47;10.50;1.00
14614;DHT22;7393;51.446;6.800;2023-04-01T00:28:15;10.40;1.00
14614;DHT22;7393;51.446;6.800;2023-04-01T00:30:42;10.50;1.00
14614;DHT22;7393;51.446;6.800;2023-04-01T00:33:12;10.40;1.00
14614;DHT22;7393;51.446;6.800;2023-04-01T00:35:39;10.50;1.00
14614;DHT22;7393;51.446;6.800;2023-04-01T00:38:06;10.40;1.00
14614;DHT22;7393;51.446;6.800;2023-04-01T00:40:34;10.40;1.00
14614;DHT22;7393;51.446;6.800;2023-04-01T00:43:01;10.40;1.00
14614;DHT22;7393;51.446;6.800;2023-04-01T00:45:33;10.40;1.00
14614;DHT22;7393;51.446;6.800;2023-04-01T00:48:03;10.40;1.00
14614;DHT22;7393;51.446;6.800;2023-04-01T00:50:33;10.40;1.00
14614;DHT22;7393;51.446;6.800;2023-04-01T00:53:01;10.40;1.00
14614;DHT22;7393;51.446;6.800;2023-04-01T00:55:31;10.40;1.00
14614;DHT22;7393;51.446;6.800;2023-04-01T00:57:59;10.30;1.00
14614;DHT22;7393;51.446;6.800;2023-04-01T01:00:26;10.30;1.00
14614;DHT22;7393;51.446;6.800;2023-04-01T01:02:53;10.40;1.00
14614;DHT22;7393;51.446;6.800;2023-04-01T01:05:26;10.40;1.00
14614;DHT22;7393;51.446;6.800;2023-04-01T01:08:01;10.30;1.00
14614;DHT22;7393;51.446;6.800;2023-04-01T01:10:31;10.30;1.00
14614;DHT22;7393;51.446;6.800;2023-04-01T01:13:05;10.40;1.00
14614;DHT22;7393;51.446;6.800;2023-04-01T01:15:37;10.40;1.00
14614;DHT22;7393;51.446;6.800;2023-04-01T01:18:16;10.40;1.00
14614;DHT22;7393;51.446;6.800;2023-04-01T01:21:01;10.40;1.00
14614;DHT22;7393;51.446;6.800;2023-04-01T01:26:43;10.40;1.00
14614;DHT22;7393;51.446;6.800;2023-04-01T01:29:22;10.30;1.00
14614;DHT22;7393;51.446;6.800;2023-04-01T01:31:57;10.30;1.00
14614;DHT22;7393;51.446;6.800;2023-04-01T01:34:32;10.30;1.00
14614;DHT22;7393;51.446;6.800;2023-04-01T01:37:06;10.30;1.00
14614;DHT22;7393;51.446;6.800;2023-04-01T01:39:36;10.20;1.00
14614;DHT22;7393;51.446;6.800;2023-04-01T01:42:05;10.30;1.00
14614;DHT22;7393;51.446;6.800;2023-04-01T01:44:34;10.30;1.00
14614;DHT22;7393;51.446;6.800;2023-04-01T01:47:02;10.30;1.00
14614;DHT22;7393;51.446;6.800;2023-04-01T01:49:32;10.30;1.00
14614;DHT22;7393;51.446;6.800;2023-04-01T01:52:00;10.30;1.00
14614;DHT22;7393;51.446;6.800;2023-04-01T01:54:28;10.30;1.00
14614;DHT22;7393;51.446;6.800;2023-04-01T01:57:01;10.30;1.00
14614;DHT22;7393;51.446;6.800;2023-04-01T01:59:30;10.30;1.00
14614;DHT22;7393;51.446;6.800;2023-04-01T02:01:59;10.30;1.00
14614;DHT22;7393;51.446;6.800;2023-04-01T02:04:34;10.30;1.00
14614;DHT22;7393;51.446;6.800;2023-04-01T02:07:03;10.30;1.00
14614;DHT22;7393;51.446;6.800;2023-04-01T02:09:33;10.30;1.00
14614;DHT22;7393;51.446;6.800;2023-04-01T02:12:03;10.30;1.00
14614;DHT22;7393;51.446;6.800;2023-04-01T02:14:36;10.30;1.00
14614;DHT22;7393;51.446;6.800;2023-04-01T02:17:08;10.30;1.00
14614;DHT22;7393;51.446;6.800;2023-04-01T02:19:38;10.30;1.00
14614;DHT22;7393;51.446;6.800;2023-04-01T02:22:10;10.30;1.00
14614;DHT22;7393;51.446;6.800;2023-04-01T02:24:41;10.30;1.00
14614;DHT22;7393;51.446;6.800;2023-04-01T02:27:09;10.30;1.00
14614;DHT22;7393;51.446;6.800;2023-04-01T02:29:36;10.30;1.00
14614;DHT22;7393;51.446;6.800;2023-04-01T02:32:05;10.30;1.00
14614;DHT22;7393;51.446;6.800;2023-04-01T02:34:32;10.20;1.00
14614;DHT22;7393;51.446;6.800;2023-04-01T02:37:00;10.20;1.00
14614;DHT22;7393;51.446;6.800;2023-04-01T02:39:27;10.20;1.00
14614;DHT22;7393;51.446;6.800;2023-04-01T02:41:55;10.20;1.00
14614;DHT22;7393;51.446;6.800;2023-04-01T02:44:25;10.20;1.00
14614;DHT22;7393;51.446;6.800;2023-04-01T02:46:52;10.20;1.00
14614;DHT22;7393;51.446;6.800;2023-04-01T02:49:19;10.20;1.00
14614;DHT22;7393;51.446;6.800;2023-04-01T02:51:45;10.20;1.00
14614;DHT22;7393;51.446;6.800;2023-04-01T02:54:12;10.10;1.00
14614;DHT22;7393;51.446;6.800;2023-04-01T02:56:39;10.20;1.00
14614;DHT22;7393;51.446;6.800;2023-04-01T02:59:07;10.10;1.00
14614;DHT22;7393;51.446;6.800;2023-04-01T03:01:34;10.10;1.00
14614;DHT22;7393;51.446;6.800;2023-04-01T03:04:01;10.10;1.00
14614;DHT22;7393;51.446;6.800;2023-04-01T03:06:27;10.10;1.00
14614;DHT22;7393;51.446;6.800;2023-04-01T03:08:54;10.00;1.00
14614;DHT22;7393;51.446;6.800;2023-04-01T03:11:21;10.00;1.00
14614;DHT22;7393;51.446;6.800;2023-04-01T03:13:48;10.10;1.00
14614;DHT22;7393;51.446;6.800;2023-04-01T03:16:16;10.00;1.00
14614;DHT22;7393;51.446;6.800;2023-04-01T03:18:43;10.10;1.00
14614;DHT22;7393;51.446;6.800;2023-04-01T03:21:15;10.10;1.00
14614;DHT22;7393;51.446;6.800;2023-04-01T03:23:41;10.10;1.00
14614;DHT22;7393;51.446;6.800;2023-04-01T03:26:08;10.10;1.00
14614;DHT22;7393;51.446;6.800;2023-04-01T03:28:35;10.10;1.00
14614;DHT22;7393;51.446;6.800;2023-04-01T03:31:02;10.10;1.00
14614;DHT22;7393;51.446;6.800;2023-04-01T03:33:30;10.10;1.00
14614;DHT22;7393;51.446;6.800;2023-04-01T03:35:57;10.10;1.00
14614;DHT22;7393;51.446;6.800;2023-04-01T03:38:24;10.20;1.00
14614;DHT22;7393;51.446;6.800;2023-04-01T03:40:51;10.10;1.00
14614;DHT22;7393;51.446;6.800;2023-04-01T03:43:18;10.10;1.00
14614;DHT22;7393;51.446;6.800;2023-04-01T03:45:45;10.10;1.00
14614;DHT22;7393;51.446;6.800;2023-04-01T03:48:11;10.10;1.00
14614;DHT22;7393;51.446;6.800;2023-04-01T03:50:40;10.10;1.00
14614;DHT22;7393;51.446;6.800;2023-04-01T03:53:07;10.10;1.00
14614;DHT22;7393;51.446;6.800;2023-04-01T03:55:35;10.10;1.00
14614;DHT22;7393;51.446;6.800;2023-04-01T03:58:02;10.10;1.00
14614;DHT22;7393;51.446;6.800;2023-04-01T04:00:29;10.10;1.00
14614;DHT22;7393;51.446;6.800;2023-04-01T04:02:56;10.10;1.00
14614;DHT22;7393;51.446;6.800;2023-04-01T04:05:24;10.10;1.00
14614;DHT22;7393;51.446;6.800;2023-04-01T04:07:53;10.10;1.00
14614;DHT22;7393;51.446;6.800;2023-04-01T04:10:20;10.10;1.00
14614;DHT22;7393;51.446;6.800;2023-04-01T04:12:49;10.00;1.00
14614;DHT22;7393;51.446;6.800;2023-04-01T04:15:16;10.10;1.00
14614;DHT22;7393;51.446;6.800;2023-04-01T04:17:44;10.10;1.00
14614;DHT22;7393;51.446;6.800;2023-04-01T04:20:10;10.10;1.00
14614;DHT22;7393;51.446;6.800;2023-04-01T04:22:37;10.10;1.00
14614;DHT22;7393;51.446;6.800;2023-04-01T04:25:07;10.10;1.00
14614;DHT22;7393;51.446;6.800;2023-04-01T04:27:34;10.10;1.00
14614;DHT22;7393;51.446;6.800;2023-04-01T04:30:01;10.10;1.00
14614;DHT22;7393;51.446;6.800;2023-04-01T04:32:29;10.10;1.00
14614;DHT22;7393;51.446;6.800;2023-04-01T04:34:56;10.10;1.00
14614;DHT22;7393;51.446;6.800;2023-04-01T04:37:22;10.10;1.00
14614;DHT22;7393;51.446;6.800;2023-04-01T04:39:51;10.10;1.00
14614;DHT22;7393;51.446;6.800;2023-04-01T04:42:19;10.10;1.00
14614;DHT22;7393;51.446;6.800;2023-04-01T04:44:46;10.10;1.00
14614;DHT22;7393;51.446;6.800;2023-04-01T04:47:13;10.10;1.00
14614;DHT22;7393;51.446;6.800;2023-04-01T04:49:39;10.10;1.00
14614;DHT22;7393;51.446;6.800;2023-04-01T04:52:06;10.10;1.00
14614;DHT22;7393;51.446;6.800;2023-04-01T04:54:33;10.10;1.00
14614;DHT22;7393;51.446;6.800;2023-04-01T04:57:00;10.10;1.00
14614;DHT22;7393;51.446;6.800;2023-04-01T04:59:28;10.10;1.00
14614;DHT22;7393;51.446;6.800;2023-04-01T05:01:54;10.10;1.00
14614;DHT22;7393;51.446;6.800;2023-04-01T05:04:21;10.10;1.00
14614;DHT22;7393;51.446;6.800;2023-04-01T05:06:48;10.10;1.00
14614;DHT22;7393;51.446;6.800;2023-04-01T05:09:15;10.10;1.00
14614;DHT22;7393;51.446;6.800;2023-04-01T05:11:42;10.10;1.00
14614;DHT22;7393;51.446;6.800;2023-04-01T05:14:12;10.10;1.00
14614;DHT22;7393;51.446;6.800;2023-04-01T05:16:40;10.10;1.00
14614;DHT22;7393;51.446;6.800;2023-04-01T05:19:07;10.10;1.00
14614;DHT22;7393;51.446;6.800;2023-04-01T05:21:34;10.10;1.00
14614;DHT22;7393;51.446;6.800;2023-04-01T05:24:01;10.10;1.00
14614;DHT22;7393;51.446;6.800;2023-04-01T05:26:27;10.10;1.00
14614;DHT22;7393;51.446;6.800;2023-04-01T05:28:54;10.10;1.00
14614;DHT22;7393;51.446;6.800;2023-04-01T05:31:21;10.10;1.00
14614;DHT22;7393;51.446;6.800;2023-04-01T05:33:50;10.10;1.00
14614;DHT22;7393;51.446;6.800;2023-04-01T05:36:17;10.10;1.00
14614;DHT22;7393;51.446;6.800;2023-04-01T05:38:44;10.10;1.00
14614;DHT22;7393;51.446;6.800;2023-04-01T05:41:13;10.10;1.00
14614;DHT22;7393;51.446;6.800;2023-04-01T05:43:40;10.10;1.00
14614;DHT22;7393;51.446;6.800;2023-04-01T05:46:07;10.10;1.00
14614;DHT22;7393;51.446;6.800;2023-04-01T05:48:34;10.00;1.00
14614;DHT22;7393;51.446;6.800;2023-04-01T05:51:04;10.10;1.00
14614;DHT22;7393;51.446;6.800;2023-04-01T05:53:30;10.10;1.00
14614;DHT22;7393;51.446;6.800;2023-04-01T05:56:02;10.10;1.00
14614;DHT22;7393;51.446;6.800;2023-04-01T05:58:29;10.00;1.00
14614;DHT22;7393;51.446;6.800;2023-04-01T06:01:01;10.00;1.00
14614;DHT22;7393;51.446;6.800;2023-04-01T06:03:28;10.10;1.00
14614;DHT22;7393;51.446;6.800;2023-04-01T06:05:55;10.10;1.00
14614;DHT22;7393;51.446;6.800;2023-04-01T06:08:24;10.10;1.00
14614;DHT22;7393;51.446;6.800;2023-04-01T06:10:59;10.00;1.00
14614;DHT22;7393;51.446;6.800;2023-04-01T06:13:37;10.10;1.00
14614;DHT22;7393;51.446;6.800;2023-04-01T06:16:10;10.10;1.00
14614;DHT22;7393;51.446;6.800;2023-04-01T06:19:10;10.10;1.00
14614;DHT22;7393;51.446;6.800;2023-04-01T06:22:26;10.00;1.00
14614;DHT22;7393;51.446;6.800;2023-04-01T06:25:07;10.00;1.00
14614;DHT22;7393;51.446;6.800;2023-04-01T06:27:51;10.10;1.00
14614;DHT22;7393;51.446;6.800;2023-04-01T06:30:34;10.00;1.00
14614;DHT22;7393;51.446;6.800;2023-04-01T06:33:25;10.10;1.00
14614;DHT22;7393;51.446;6.800;2023-04-01T06:36:18;10.10;1.00
14614;DHT22;7393;51.446;6.800;2023-04-01T06:39:05;10.20;1.00
14614;DHT22;7393;51.446;6.800;2023-04-01T06:44:43;10.10;1.00
14614;DHT22;7393;51.446;6.800;2023-04-01T06:47:23;10.10;1.00
14614;DHT22;7393;51.446;6.800;2023-04-01T06:49:59;10.10;1.00
14614;DHT22;7393;51.446;6.800;2023-04-01T06:52:35;10.10;1.00
14614;DHT22;7393;51.446;6.800;2023-04-01T06:55:17;10.10;1.00
14614;DHT22;7393;51.446;6.800;2023-04-01T06:57:49;10.10;1.00
14614;DHT22;7393;51.446;6.800;2023-04-01T07:00:22;10.10;1.00
14614;DHT22;7393;51.446;6.800;2023-04-01T07:02:55;10.10;1.00
14614;DHT22;7393;51.446;6.800;2023-04-01T07:05:24;10.10;1.00
14614;DHT22;7393;51.446;6.800;2023-04-01T07:07:57;10.10;1.00
14614;DHT22;7393;51.446;6.800;2023-04-01T07:10:31;10.10;1.00
14614;DHT22;7393;51.446;6.800;2023-04-01T07:13:05;10.10;1.00
14614;DHT22;7393;51.446;6.800;2023-04-01T07:15:37;10.10;1.00
14614;DHT22;7393;51.446;6.800;2023-04-01T07:18:12;10.10;1.00
14614;DHT22;7393;51.446;6.800;2023-04-01T07:20:41;10.10;1.00
14614;DHT22;7393;51.446;6.800;2023-04-01T07:23:15;10.10;1.00
14614;DHT22;7393;51.446;6.800;2023-04-01T07:25:44;10.20;1.00
14614;DHT22;7393;51.446;6.800;2023-04-01T07:28:15;10.20;1.00
14614;DHT22;7393;51.446;6.800;2023-04-01T07:30:51;10.20;1.00
14614;DHT22;7393;51.446;6.800;2023-04-01T07:33:24;10.10;1.00
14614;DHT22;7393;51.446;6.800;2023-04-01T07:35:56;10.10;1.00
14614;DHT22;7393;51.446;6.800;2023-04-01T07:38:30;10.10;1.00
14614;DHT22;7393;51.446;6.800;2023-04-01T07:41:05;10.10;1.00
14614;DHT22;7393;51.446;6.800;2023-04-01T07:43:53;10.10;1.00
14614;DHT22;7393;51.446;6.800;2023-04-01T07:49:11;10.10;1.00
14614;DHT22;7393;51.446;6.800;2023-04-01T07:51:45;10.10;1.00
14614;DHT22;7393;51.446;6.800;2023-04-01T07:54:20;10.20;1.00
14614;DHT22;7393;51.446;6.800;2023-04-01T07:56:53;10.20;1.00
14614;DHT22;7393;51.446;6.800;2023-04-01T07:59:28;10.20;1.00
14614;DHT22;7393;51.446;6.800;2023-04-01T08:02:05;10.20;1.00
14614;DHT22;7393;51.446;6.800;2023-04-01T08:04:41;10.10;1.00
14614;DHT22;7393;51.446;6.800;2023-04-01T08:07:13;10.20;1.00
14614;DHT22;7393;51.446;6.800;2023-04-01T08:09:50;10.20;1.00
14614;DHT22;7393;51.446;6.800;2023-04-01T08:12:32;10.20;1.00
14614;DHT22;7393;51.446;6.800;2023-04-01T08:15:13;10.20;1.00
14614;DHT22;7393;51.446;6.800;2023-04-01T08:17:48;10.20;1.00
14614;DHT22;7393;51.446;6.800;2023-04-01T08:20:28;10.10;1.00
14614;DHT22;7393;51.446;6.800;2023-04-01T08:23:00;10.10;1.00
14614;DHT22;7393;51.446;6.800;2023-04-01T08:25:30;10.10;1.00
14614;DHT22;7393;51.446;6.800;2023-04-01T08:28:03;10.10;1.00
14614;DHT22;7393;51.446;6.800;2023-04-01T08:30:40;10.10;1.00
14614;DHT22;7393;51.446;6.800;2023-04-01T08:33:12;10.20;1.00
14614;DHT22;7393;51.446;6.800;2023-04-01T08:35:46;10.20;1.00
14614;DHT22;7393;51.446;6.800;2023-04-01T08:38:19;10.20;1.00
14614;DHT22;7393;51.446;6.800;2023-04-01T08:40:56;10.20;1.00
14614;DHT22;7393;51.446;6.800;2023-04-01T08:43:48;10.20;1.00
14614;DHT22;7393;51.446;6.800;2023-04-01T08:46:42;10.30;1.00
14614;DHT22;7393;51.446;6.800;2023-04-01T08:49:29;10.30;1.00
14614;DHT22;7393;51.446;6.800;2023-04-01T08:52:16;10.30;1.00
14614;DHT22;7393;51.446;6.800;2023-04-01T08:58:26;10.30;1.00
14614;DHT22;7393;51.446;6.800;2023-04-01T09:01:01;10.30;1.00
14614;DHT22;7393;51.446;6.800;2023-04-01T09:03:49;10.30;1.00
14614;DHT22;7393;51.446;6.800;2023-04-01T09:06:26;10.30;1.00
14614;DHT22;7393;51.446;6.800;2023-04-01T09:09:29;10.40;1.00
14614;DHT22;7393;51.446;6.800;2023-04-01T09:15:20;10.50;1.00
14614;DHT22;7393;51.446;6.800;2023-04-01T09:18:13;10.50;1.00
14614;DHT22;7393;51.446;6.800;2023-04-01T09:20:59;10.50;1.00
14614;DHT22;7393;51.446;6.800;2023-04-01T09:23:47;10.50;1.00
14614;DHT22;7393;51.446;6.800;2023-04-01T09:26:44;10.50;1.00
14614;DHT22;7393;51.446;6.800;2023-04-01T09:29:26;10.50;1.00
14614;DHT22;7393;51.446;6.800;2023-04-01T09:32:22;10.60;1.00
14614;DHT22;7393;51.446;6.800;2023-04-01T09:34:56;10.60;1.00
14614;DHT22;7393;51.446;6.800;2023-04-01T09:37:39;10.60;1.00
14614;DHT22;7393;51.446;6.800;2023-04-01T09:40:18;10.60;1.00
14614;DHT22;7393;51.446;6.800;2023-04-01T09:43:04;10.70;1.00
14614;DHT22;7393;51.446;6.800;2023-04-01T09:45:46;10.70;1.00
14614;DHT22;7393;51.446;6.800;2023-04-01T09:48:39;10.80;1.00
14614;DHT22;7393;51.446;6.800;2023-04-01T09:51:17;10.80;1.00
14614;DHT22;7393;51.446;6.800;2023-04-01T09:54:00;10.80;1.00
14614;DHT22;7393;51.446;6.800;2023-04-01T09:56:52;10.80;1.00
14614;DHT22;7393;51.446;6.800;2023-04-01T10:00:03;10.80;1.00
14614;DHT22;7393;51.446;6.800;2023-04-01T10:05:50;10.80;1.00
14614;DHT22;7393;51.446;6.800;2023-04-01T10:08:52;10.80;1.00
14614;DHT22;7393;51.446;6.800;2023-04-01T10:11:41;10.80;1.00
14614;DHT22;7393;51.446;6.800;2023-04-01T10:14:30;10.80;1.00
14614;DHT22;7393;51.446;6.800;2023-04-01T10:20:30;10.80;1.00
14614;DHT22;7393;51.446;6.800;2023-04-01T10:23:36;10.90;1.00
14614;DHT22;7393;51.446;6.800;2023-04-01T10:26:27;10.90;1.00
14614;DHT22;7393;51.446;6.800;2023-04-01T10:32:34;10.80;1.00
14614;DHT22;7393;51.446;6.800;2023-04-01T10:35:28;10.90;1.00
14614;DHT22;7393;51.446;6.800;2023-04-01T10:38:13;10.80;1.00
14614;DHT22;7393;51.446;6.800;2023-04-01T10:41:18;10.80;1.00
14614;DHT22;7393;51.446;6.800;2023-04-01T10:47:14;10.80;1.00
14614;DHT22;7393;51.446;6.800;2023-04-01T10:50:04;10.80;1.00
14614;DHT22;7393;51.446;6.800;2023-04-01T10:53:13;10.90;1.00
14614;DHT22;7393;51.446;6.800;2023-04-01T11:02:26;10.80;1.00
14614;DHT22;7393;51.446;6.800;2023-04-01T11:15:11;10.90;1.00
14614;DHT22;7393;51.446;6.800;2023-04-01T11:18:13;10.90;1.00
14614;DHT22;7393;51.446;6.800;2023-04-01T11:24:20;10.90;1.00
14614;DHT22;7393;51.446;6.800;2023-04-01T11:27:01;10.90;1.00
14614;DHT22;7393;51.446;6.800;2023-04-01T11:29:40;10.90;1.00
14614;DHT22;7393;51.446;6.800;2023-04-01T11:32:24;10.90;1.00
14614;DHT22;7393;51.446;6.800;2023-04-01T11:37:54;10.90;1.00
14614;DHT22;7393;51.446;6.800;2023-04-01T11:40:31;11.00;1.00
14614;DHT22;7393;51.446;6.800;2023-04-01T11:43:07;11.00;1.00
14614;DHT22;7393;51.446;6.800;2023-04-01T11:45:39;11.00;1.00
14614;DHT22;7393;51.446;6.800;2023-04-01T11:48:27;10.90;1.00
14614;DHT22;7393;51.446;6.800;2023-04-01T11:51:17;11.00;1.00
14614;DHT22;7393;51.446;6.800;2023-04-01T11:53:52;11.00;1.00
14614;DHT22;7393;51.446;6.800;2023-04-01T11:56:43;11.00;1.00
14614;DHT22;7393;51.446;6.800;2023-04-01T11:59:38;11.00;1.00
14614;DHT22;7393;51.446;6.800;2023-04-01T12:02:16;11.10;1.00
14614;DHT22;7393;51.446;6.800;2023-04-01T12:05:13;11.10;1.00
14614;DHT22;7393;51.446;6.800;2023-04-01T12:07:53;11.10;1.00
14614;DHT22;7393;51.446;6.800;2023-04-01T12:10:26;11.10;1.00
14614;DHT22;7393;51.446;6.800;2023-04-01T12:13:01;11.20;1.00
14614;DHT22;7393;51.446;6.800;2023-04-01T12:15:41;11.10;1.00
14614;DHT22;7393;51.446;6.800;2023-04-01T12:18:15;11.20;1.00
14614;DHT22;7393;51.446;6.800;2023-04-01T12:20:50;11.20;1.00
14614;DHT22;7393;51.446;6.800;2023-04-01T12:23:49;11.20;1.00
14614;DHT22;7393;51.446;6.800;2023-04-01T12:26:52;11.20;1.00
14614;DHT22;7393;51.446;6.800;2023-04-01T12:29:48;11.30;1.00
14614;DHT22;7393;51.446;6.800;2023-04-01T12:32:25;11.30;1.00
14614;DHT22;7393;51.446;6.800;2023-04-01T12:35:03;11.30;1.00
14614;DHT22;7393;51.446;6.800;2023-04-01T12:37:46;11.30;1.00
14614;DHT22;7393;51.446;6.800;2023-04-01T12:40:27;11.30;1.00
14614;DHT22;7393;51.446;6.800;2023-04-01T12:43:05;11.30;1.00
14614;DHT22;7393;51.446;6.800;2023-04-01T12:45:41;11.40;1.00
14614;DHT22;7393;51.446;6.800;2023-04-01T12:48:46;11.40;1.00
14614;DHT22;7393;51.446;6.800;2023-04-01T12:51:51;11.40;1.00
14614;DHT22;7393;51.446;6.800;2023-04-01T12:54:56;11.40;1.00
14614;DHT22;7393;51.446;6.800;2023-04-01T12:57:55;11.40;1.00
14614;DHT22;7393;51.446;6.800;2023-04-01T13:00:31;11.30;1.00
14614;DHT22;7393;51.446;6.800;2023-04-01T13:03:17;11.30;1.00
14614;DHT22;7393;51.446;6.800;2023-04-01T13:08:47;11.30;1.00
14614;DHT22;7393;51.446;6.800;2023-04-01T13:11:21;11.20;1.00
14614;DHT22;7393;51.446;6.800;2023-04-01T13:14:17;11.20;1.00
14614;DHT22;7393;51.446;6.800;2023-04-01T13:16:52;11.20;1.00
14614;DHT22;7393;51.446;6.800;2023-04-01T13:19:26;11.20;1.00
14614;DHT22;7393;51.446;6.800;2023-04-01T13:21:59;11.10;1.00
14614;DHT22;7393;51.446;6.800;2023-04-01T13:24:46;11.10;1.00
14614;DHT22;7393;51.446;6.800;2023-04-01T13:27:20;11.10;1.00
14614;DHT22;7393;51.446;6.800;2023-04-01T13:30:00;11.10;1.00
14614;DHT22;7393;51.446;6.800;2023-04-01T13:32:34;11.10;1.00
14614;DHT22;7393;51.446;6.800;2023-04-01T13:35:26;11.00;1.00
14614;DHT22;7393;51.446;6.800;2023-04-01T13:38:08;11.10;1.00
14614;DHT22;7393;51.446;6.800;2023-04-01T13:40:49;11.10;1.00
14614;DHT22;7393;51.446;6.800;2023-04-01T13:43:24;11.10;1.00
14614;DHT22;7393;51.446;6.800;2023-04-01T13:46:09;11.10;1.00
14614;DHT22;7393;51.446;6.800;2023-04-01T13:48:54;11.00;1.00
14614;DHT22;7393;51.446;6.800;2023-04-01T13:51:41;11.00;1.00
14614;DHT22;7393;51.446;6.800;2023-04-01T13:54:25;11.10;1.00
14614;DHT22;7393;51.446;6.800;2023-04-01T13:57:06;11.10;1.00
14614;DHT22;7393;51.446;6.800;2023-04-01T13:59:57;11.10;1.00
14614;DHT22;7393;51.446;6.800;2023-04-01T14:02:44;11.10;1.00
14614;DHT22;7393;51.446;6.800;2023-04-01T14:05:29;11.00;1.00
14614;DHT22;7393;51.446;6.800;2023-04-01T14:08:07;11.00;1.00
14614;DHT22;7393;51.446;6.800;2023-04-01T14:10:39;11.10;1.00
14614;DHT22;7393;51.446;6.800;2023-04-01T14:13:13;11.10;1.00
14614;DHT22;7393;51.446;6.800;2023-04-01T14:15:57;11.00;1.00
14614;DHT22;7393;51.446;6.800;2023-04-01T14:18:42;11.00;1.00
14614;DHT22;7393;51.446;6.800;2023-04-01T14:21:21;11.00;1.00
14614;DHT22;7393;51.446;6.800;2023-04-01T14:27:09;11.00;1.00
14614;DHT22;7393;51.446;6.800;2023-04-01T14:29:48;11.10;1.00
14614;DHT22;7393;51.446;6.800;2023-04-01T14:32:25;11.10;1.00
14614;DHT22;7393;51.446;6.800;2023-04-01T14:35:05;11.10;1.00
14614;DHT22;7393;51.446;6.800;2023-04-01T14:37:58;11.10;1.00
14614;DHT22;7393;51.446;6.800;2023-04-01T14:40:28;11.10;1.00
14614;DHT22;7393;51.446;6.800;2023-04-01T14:43:28;11.10;1.00
14614;DHT22;7393;51.446;6.800;2023-04-01T14:46:23;11.10;1.00
14614;DHT22;7393;51.446;6.800;2023-04-01T14:48:57;11.10;1.00
14614;DHT22;7393;51.446;6.800;2023-04-01T14:51:30;11.10;1.00
14614;DHT22;7393;51.446;6.800;2023-04-01T14:54:13;11.10;1.00
14614;DHT22;7393;51.446;6.800;2023-04-01T14:56:49;11.10;1.00
14614;DHT22;7393;51.446;6.800;2023-04-01T14:59:27;11.10;1.00
14614;DHT22;7393;51.446;6.800;2023-04-01T15:02:01;11.10;1.00
14614;DHT22;7393;51.446;6.800;2023-04-01T15:04:49;11.10;1.00
14614;DHT22;7393;51.446;6.800;2023-04-01T15:14:03;11.10;1.00
14614;DHT22;7393;51.446;6.800;2023-04-01T15:16:41;11.20;1.00
14614;DHT22;7393;51.446;6.800;2023-04-01T15:19:21;11.10;1.00
14614;DHT22;7393;51.446;6.800;2023-04-01T15:22:02;11.20;1.00
14614;DHT22;7393;51.446;6.800;2023-04-01T15:24:43;11.20;1.00
14614;DHT22;7393;51.446;6.800;2023-04-01T15:27:21;11.20;1.00
14614;DHT22;7393;51.446;6.800;2023-04-01T15:30:02;11.20;1.00
14614;DHT22;7393;51.446;6.800;2023-04-01T15:32:42;11.20;1.00
14614;DHT22;7393;51.446;6.800;2023-04-01T15:35:21;11.20;1.00
14614;DHT22;7393;51.446;6.800;2023-04-01T15:37:55;11.20;1.00
14614;DHT22;7393;51.446;6.800;2023-04-01T15:40:26;11.20;1.00
14614;DHT22;7393;51.446;6.800;2023-04-01T15:43:06;11.20;1.00
14614;DHT22;7393;51.446;6.800;2023-04-01T15:45:45;11.20;1.00
14614;DHT22;7393;51.446;6.800;2023-04-01T15:48:25;11.20;1.00
14614;DHT22;7393;51.446;6.800;2023-04-01T15:51:02;11.20;1.00
14614;DHT22;7393;51.446;6.800;2023-04-01T15:53:49;11.20;1.00
14614;DHT22;7393;51.446;6.800;2023-04-01T15:56:45;11.30;1.00
14614;DHT22;7393;51.446;6.800;2023-04-01T15:59:27;11.30;1.00
14614;DHT22;7393;51.446;6.800;2023-04-01T16:02:09;11.30;1.00
14614;DHT22;7393;51.446;6.800;2023-04-01T16:04:47;11.30;1.00
14614;DHT22;7393;51.446;6.800;2023-04-01T16:07:24;11.30;1.00
14614;DHT22;7393;51.446;6.800;2023-04-01T16:10:06;11.30;1.00
14614;DHT22;7393;51.446;6.800;2023-04-01T16:12:51;11.30;1.00
14614;DHT22;7393;51.446;6.800;2023-04-01T16:15:26;11.40;1.00
14614;DHT22;7393;51.446;6.800;2023-04-01T16:18:19;11.40;1.00
14614;DHT22;7393;51.446;6.800;2023-04-01T16:20:54;11.40;1.00
14614;DHT22;7393;51.446;6.800;2023-04-01T16:23:26;11.40;1.00
14614;DHT22;7393;51.446;6.800;2023-04-01T16:26:03;11.30;1.00
14614;DHT22;7393;51.446;6.800;2023-04-01T16:28:35;11.30;1.00
14614;DHT22;7393;51.446;6.800;2023-04-01T16:31:06;11.30;1.00
14614;DHT22;7393;51.446;6.800;2023-04-01T16:33:40;11.30;1.00
14614;DHT22;7393;51.446;6.800;2023-04-01T16:36:21;11.30;1.00
14614;DHT22;7393;51.446;6.800;2023-04-01T16:38:52;11.20;1.00
14614;DHT22;7393;51.446;6.800;2023-04-01T16:41:31;11.30;1.00
14614;DHT22;7393;51.446;6.800;2023-04-01T16:44:10;11.20;1.00
14614;DHT22;7393;51.446;6.800;2023-04-01T16:46:38;11.20;1.00
14614;DHT22;7393;51.446;6.800;2023-04-01T16:49:23;11.20;1.00
14614;DHT22;7393;51.446;6.800;2023-04-01T16:51:54;11.20;1.00
14614;DHT22;7393;51.446;6.800;2023-04-01T16:54:28;11.20;1.00
14614;DHT22;7393;51.446;6.800;2023-04-01T16:57:11;11.20;1.00
14614;DHT22;7393;51.446;6.800;2023-04-01T16:59:47;11.20;1.00
14614;DHT22;7393;51.446;6.800;2023-04-01T17:02:23;11.20;1.00
14614;DHT22;7393;51.446;6.800;2023-04-01T17:05:00;11.20;1.00
14614;DHT22;7393;51.446;6.800;2023-04-01T17:07:40;11.10;1.00
14614;DHT22;7393;51.446;6.800;2023-04-01T17:10:35;11.10;1.00
14614;DHT22;7393;51.446;6.800;2023-04-01T17:13:29;11.10;1.00
14614;DHT22;7393;51.446;6.800;2023-04-01T17:16:10;11.10;1.00
14614;DHT22;7393;51.446;6.800;2023-04-01T17:18:46;11.10;1.00
14614;DHT22;7393;51.446;6.800;2023-04-01T17:21:17;11.10;1.00
14614;DHT22;7393;51.446;6.800;2023-04-01T17:23:51;11.10;1.00
14614;DHT22;7393;51.446;6.800;2023-04-01T17:26:28;11.00;1.00
14614;DHT22;7393;51.446;6.800;2023-04-01T17:29:04;11.00;1.00
14614;DHT22;7393;51.446;6.800;2023-04-01T17:31:46;11.00;1.00
14614;DHT22;7393;51.446;6.800;2023-04-01T17:37:10;11.10;1.00
14614;DHT22;7393;51.446;6.800;2023-04-01T17:39:49;11.10;1.00
14614;DHT22;7393;51.446;6.800;2023-04-01T17:42:22;11.10;1.00
14614;DHT22;7393;51.446;6.800;2023-04-01T17:45:02;11.10;1.00
14614;DHT22;7393;51.446;6.800;2023-04-01T17:47:41;11.00;1.00
14614;DHT22;7393;51.446;6.800;2023-04-01T17:50:21;11.10;1.00
14614;DHT22;7393;51.446;6.800;2023-04-01T17:52:55;11.10;1.00
14614;DHT22;7393;51.446;6.800;2023-04-01T17:58:17;11.00;1.00
14614;DHT22;7393;51.446;6.800;2023-04-01T18:03:56;11.00;1.00
14614;DHT22;7393;51.446;6.800;2023-04-01T18:06:34;11.00;1.00
14614;DHT22;7393;51.446;6.800;2023-04-01T18:09:09;11.00;1.00
14614;DHT22;7393;51.446;6.800;2023-04-01T18:11:49;11.00;1.00
14614;DHT22;7393;51.446;6.800;2023-04-01T18:14:28;11.00;1.00